createdAt,value
2023-03-26T00:02:10.214Z,100610.09
2023-03-26T00:04:43.339Z,100614.38
2023-03-26T00:07:10.944Z,100622.97
2023-03-26T00:09:38.365Z,100617.66
2023-03-26T00:12:11.036Z,100620.31
2023-03-26T00:14:43.259Z,100616.66
2023-03-26T00:17:12.004Z,100608.34
2023-03-26T00:19:47.113Z,100614.50
2023-03-26T00:22:22.675Z,100610.81
2023-03-26T00:25:00.340Z,100607.16
2023-03-26T00:27:40.527Z,100602.66
2023-03-26T00:30:09.545Z,100597.19
2023-03-26T00:32:40.771Z,100599.84
2023-03-26T00:35:08.444Z,100590.03
2023-03-26T00:37:42.850Z,100590.88
2023-03-26T00:40:11.385Z,100588.03
2023-03-26T00:42:38.714Z,100580.91
2023-03-26T00:45:07.641Z,100581.91
2023-03-26T00:47:34.532Z,100583.72
2023-03-26T00:50:04.124Z,100577.59
2023-03-26T00:52:31.852Z,100572.47
2023-03-26T00:54:59.084Z,100571.66
2023-03-26T00:57:35.777Z,100571.47
2023-03-26T01:00:17.060Z,100563.50
2023-03-26T01:02:47.995Z,100568.81
2023-03-26T01:05:56.486Z,100555.38
2023-03-26T01:08:30.792Z,100556.38
2023-03-26T01:11:08.860Z,100554.53
2023-03-26T01:13:38.873Z,100552.06
2023-03-26T01:16:28.857Z,100556.56
2023-03-26T01:18:59.448Z,100545.75
2023-03-26T01:21:33.800Z,100541.47
2023-03-26T01:24:05.996Z,100541.28
2023-03-26T01:27:01.566Z,100543.09
2023-03-26T01:29:33.360Z,100531.66
2023-03-26T01:32:06.671Z,100525.38
2023-03-26T01:34:47.246Z,100530.66
2023-03-26T01:37:24.361Z,100525.19
2023-03-26T01:39:58.606Z,100525.97
2023-03-26T01:42:34.967Z,100509.06
2023-03-26T01:45:10.072Z,100512.34
2023-03-26T01:47:40.311Z,100511.34
2023-03-26T01:50:09.220Z,100513.00
2023-03-26T01:52:41.070Z,100507.69
2023-03-26T01:55:15.706Z,100503.19
2023-03-26T01:58:04.606Z,100509.13
2023-03-26T02:00:37.609Z,100506.28
2023-03-26T02:03:21.037Z,100503.63
2023-03-26T02:05:54.212Z,100492.84
2023-03-26T02:08:37.590Z,100488.34
2023-03-26T02:11:13.137Z,100477.75
2023-03-26T02:13:42.849Z,100470.78
2023-03-26T02:16:14.624Z,100471.78
2023-03-26T02:18:41.713Z,100472.63
2023-03-26T02:21:16.840Z,100476.91
2023-03-26T02:23:51.800Z,100471.78
2023-03-26T02:26:22.694Z,100467.31
2023-03-26T02:28:53.158Z,100466.31
2023-03-26T02:31:22.147Z,100464.47
2023-03-26T02:33:49.691Z,100453.84
2023-03-26T02:36:21.570Z,100452.84
2023-03-26T02:38:49.930Z,100450.19
2023-03-26T02:41:18.563Z,100445.72
2023-03-26T02:44:00.703Z,100445.72
2023-03-26T02:46:29.055Z,100445.72
2023-03-26T02:48:57.252Z,100443.88
2023-03-26T02:51:25.933Z,100442.22
2023-03-26T02:53:53.763Z,100437.94
2023-03-26T02:56:20.542Z,100438.94
2023-03-26T02:58:48.629Z,100438.94
2023-03-26T03:01:18.979Z,100436.28
2023-03-26T03:03:50.518Z,100435.47
2023-03-26T03:06:20.300Z,100436.28
2023-03-26T03:08:47.351Z,100436.28
2023-03-26T03:11:16.188Z,100435.47
2023-03-26T03:13:43.302Z,100423.84
2023-03-26T03:16:13.004Z,100432.63
2023-03-26T03:18:43.280Z,100423.00
2023-03-26T03:21:11.594Z,100417.53
2023-03-26T03:23:38.777Z,100419.19
2023-03-26T03:26:09.179Z,100411.81
2023-03-26T03:28:36.503Z,100409.81
2023-03-26T03:31:05.965Z,100401.84
2023-03-26T03:33:34.859Z,100397.19
2023-03-26T03:36:10.390Z,100398.00
2023-03-26T03:38:51.338Z,100393.53
2023-03-26T03:41:21.263Z,100393.53
2023-03-26T03:43:49.587Z,100398.81
2023-03-26T03:46:16.574Z,100399.66
2023-03-26T03:48:50.881Z,100400.25
2023-03-26T03:51:18.547Z,100396.78
2023-03-26T03:53:50.613Z,100392.28
2023-03-26T03:56:45.540Z,100393.13
2023-03-26T03:59:20.053Z,100390.47
2023-03-26T04:01:54.364Z,100385.97
2023-03-26T04:04:38.155Z,100387.44
2023-03-26T04:07:09.489Z,100375.19
2023-03-26T04:12:48.593Z,100365.75
2023-03-26T04:15:40.113Z,100367.59
2023-03-26T04:18:12.490Z,100360.44
2023-03-26T04:20:47.943Z,100361.09
2023-03-26T04:23:15.489Z,100360.91
2023-03-26T04:25:51.367Z,100355.41
2023-03-26T04:31:30.632Z,100348.28
2023-03-26T04:34:07.174Z,100345.78
2023-03-26T04:36:40.464Z,100346.41
2023-03-26T04:45:17.013Z,100332.13
2023-03-26T04:47:46.860Z,100329.47
2023-03-26T04:50:24.936Z,100326.81
2023-03-26T04:53:11.992Z,100326.00
2023-03-26T04:55:50.381Z,100324.16
2023-03-26T05:01:25.720Z,100300.66
2023-03-26T05:04:06.524Z,100311.91
2023-03-26T05:06:39.473Z,100300.47
2023-03-26T05:09:10.706Z,100301.91
2023-03-26T05:11:37.469Z,100294.78
2023-03-26T05:14:10.425Z,100300.25
2023-03-26T05:16:39.740Z,100299.06
2023-03-26T05:19:10.249Z,100289.47
2023-03-26T05:21:38.888Z,100290.28
2023-03-26T05:24:10.902Z,100282.31
2023-03-26T05:26:41.025Z,100279.66
2023-03-26T05:29:10.047Z,100275.38
2023-03-26T05:31:44.498Z,100272.72
2023-03-26T05:34:14.739Z,100265.56
2023-03-26T05:36:44.110Z,100266.56
2023-03-26T05:39:14.315Z,100259.44
2023-03-26T05:41:41.443Z,100263.75
2023-03-26T05:44:08.687Z,100257.59
2023-03-26T05:46:35.667Z,100247.81
2023-03-26T05:49:02.570Z,100249.63
2023-03-26T05:51:29.384Z,100247.16
2023-03-26T05:53:56.125Z,100240.63
2023-03-26T05:56:24.338Z,100232.84
2023-03-26T05:58:52.120Z,100233.88
2023-03-26T06:01:19.729Z,100233.03
2023-03-26T06:03:47.213Z,100225.06
2023-03-26T06:06:16.304Z,100222.81
2023-03-26T06:08:43.021Z,100217.25
2023-03-26T06:11:12.612Z,100221.97
2023-03-26T06:13:42.472Z,100218.66
2023-03-26T06:16:10.712Z,100212.13
2023-03-26T06:18:56.446Z,100198.84
2023-03-26T06:21:24.182Z,100200.69
2023-03-26T06:23:51.825Z,100195.75
2023-03-26T06:26:20.789Z,100191.09
2023-03-26T06:28:51.997Z,100182.94
2023-03-26T06:31:20.304Z,100181.91
2023-03-26T06:33:48.932Z,100185.59
2023-03-26T06:36:16.132Z,100187.19
2023-03-26T06:38:42.967Z,100187.84
2023-03-26T06:41:09.811Z,100192.13
2023-03-26T06:43:38.285Z,100188.47
2023-03-26T06:46:08.465Z,100190.31
2023-03-26T06:48:35.356Z,100193.78
2023-03-26T06:51:02.161Z,100192.13
2023-03-26T06:53:29.000Z,100188.66
2023-03-26T06:55:55.972Z,100185.19
2023-03-26T06:58:23.400Z,100187.00
2023-03-26T07:00:54.050Z,100185.19
2023-03-26T07:03:23.721Z,100190.50
2023-03-26T07:05:51.691Z,100195.81
2023-03-26T07:08:18.452Z,100187.84
2023-03-26T07:10:46.216Z,100189.66
2023-03-26T07:13:14.796Z,100192.13
2023-03-26T07:15:41.870Z,100179.69
2023-03-26T07:18:09.039Z,100188.47
2023-03-26T07:20:37.941Z,100183.16
2023-03-26T07:23:05.356Z,100184.63
2023-03-26T07:25:32.800Z,100186.03
2023-03-26T07:28:11.339Z,100180.53
2023-03-26T07:30:47.338Z,100178.91
2023-03-26T07:33:21.360Z,100176.25
2023-03-26T07:35:54.471Z,100174.22
2023-03-26T07:38:42.376Z,100175.06
2023-03-26T07:41:17.873Z,100175.88
2023-03-26T07:43:57.777Z,100175.06
2023-03-26T07:46:29.606Z,100159.94
2023-03-26T07:48:58.718Z,100169.34
2023-03-26T07:51:28.128Z,100166.50
2023-03-26T07:53:56.354Z,100161.81
2023-03-26T07:56:29.757Z,100155.09
2023-03-26T07:59:10.214Z,100154.91
2023-03-26T08:01:48.867Z,100155.91
2023-03-26T08:04:39.085Z,100151.59
2023-03-26T08:07:15.041Z,100152.25
2023-03-26T08:09:54.932Z,100148.56
2023-03-26T08:12:30.317Z,100151.22
2023-03-26T08:15:04.253Z,100146.56
2023-03-26T08:17:38.462Z,100147.16
2023-03-26T08:20:20.919Z,100145.31
2023-03-26T08:22:54.332Z,100142.66
2023-03-26T08:25:28.292Z,100135.53
2023-03-26T08:28:24.021Z,100147.78
2023-03-26T08:30:50.830Z,100144.13
2023-03-26T08:33:20.596Z,100145.94
2023-03-26T08:35:48.402Z,100149.22
2023-03-26T08:38:18.547Z,100146.78
2023-03-26T08:41:23.492Z,100155.56
2023-03-26T08:44:16.936Z,100144.13
2023-03-26T08:47:15.328Z,100144.13
2023-03-26T08:50:20.732Z,100145.31
2023-03-26T08:53:31.441Z,100154.94
2023-03-26T08:56:06.185Z,100142.84
2023-03-26T08:59:01.646Z,100147.38
2023-03-26T09:02:03.273Z,100143.69
2023-03-26T09:04:55.646Z,100148.97
2023-03-26T09:07:44.899Z,100151.63
2023-03-26T09:10:39.754Z,100148.59
2023-03-26T09:13:25.688Z,100150.06
2023-03-26T09:16:37.101Z,100148.22
2023-03-26T09:19:52.666Z,100145.34
2023-03-26T09:22:53.146Z,100138.66
2023-03-26T09:25:48.168Z,100136.81
2023-03-26T09:29:03.506Z,100144.78
2023-03-26T09:32:03.029Z,100142.13
2023-03-26T09:34:31.944Z,100141.09
2023-03-26T09:37:16.978Z,100140.28
2023-03-26T09:39:56.203Z,100140.47
2023-03-26T09:42:31.461Z,100134.97
2023-03-26T09:45:54.850Z,100133.53
2023-03-26T09:48:47.669Z,100137.03
2023-03-26T09:51:35.421Z,100136.84
2023-03-26T09:54:18.551Z,100138.25
2023-03-26T09:56:58.571Z,100136.44
2023-03-26T09:59:54.934Z,100144.03
2023-03-26T10:02:45.949Z,100143.03
2023-03-26T10:05:48.931Z,100145.25
2023-03-26T10:08:39.361Z,100137.53
2023-03-26T10:11:14.766Z,100145.09
2023-03-26T10:13:55.761Z,100144.69
2023-03-26T10:16:31.388Z,100141.03
2023-03-26T10:19:29.446Z,100145.94
2023-03-26T10:22:10.552Z,100139.22
2023-03-26T10:24:59.797Z,100143.50
2023-03-26T10:27:39.836Z,100140.63
2023-03-26T10:30:42.945Z,100141.69
2023-03-26T10:33:18.449Z,100145.13
2023-03-26T10:36:00.755Z,100151.91
2023-03-26T10:38:43.420Z,100136.97
2023-03-26T10:41:18.298Z,100143.31
2023-03-26T10:44:08.461Z,100142.53
2023-03-26T10:46:57.732Z,100139.25
2023-03-26T10:49:49.896Z,100141.09
2023-03-26T10:52:20.936Z,100143.56
2023-03-26T10:54:56.234Z,100136.81
2023-03-26T10:57:29.342Z,100146.63
2023-03-26T11:00:00.906Z,100147.06
2023-03-26T11:02:30.645Z,100152.56
2023-03-26T11:05:23.972Z,100149.09
2023-03-26T11:08:00.093Z,100159.34
2023-03-26T11:10:40.587Z,100159.53
2023-03-26T11:13:18.727Z,100159.72
2023-03-26T11:15:50.824Z,100156.66
2023-03-26T11:18:23.546Z,100154.59
2023-03-26T11:20:56.021Z,100161.75
2023-03-26T11:24:06.132Z,100160.94
2023-03-26T11:26:49.222Z,100165.63
2023-03-26T11:29:37.336Z,100162.75
2023-03-26T11:32:10.306Z,100171.75
2023-03-26T11:34:40.957Z,100182.34
2023-03-26T11:37:16.800Z,100169.47
2023-03-26T11:39:48.610Z,100177.00
2023-03-26T11:42:19.840Z,100186.41
2023-03-26T11:44:51.307Z,100179.44
2023-03-26T11:47:23.264Z,100189.03
2023-03-26T11:49:53.649Z,100188.00
2023-03-26T11:52:21.656Z,100186.38
2023-03-26T11:54:50.516Z,100188.81
2023-03-26T11:57:22.444Z,100192.91
2023-03-26T11:59:57.941Z,100192.91
2023-03-26T12:02:29.312Z,100190.06
2023-03-26T12:05:18.083Z,100189.88
2023-03-26T12:07:49.455Z,100191.50
2023-03-26T12:10:25.729Z,100191.50
2023-03-26T12:12:57.230Z,100189.22
2023-03-26T12:15:26.033Z,100190.06
2023-03-26T12:17:56.485Z,100194.34
2023-03-26T12:20:36.871Z,100195.34
2023-03-26T12:23:05.448Z,100199.41
2023-03-26T12:25:36.193Z,100206.69
2023-03-26T12:28:17.363Z,100201.13
2023-03-26T12:30:54.997Z,100209.94
2023-03-26T12:33:26.926Z,100210.72
2023-03-26T12:35:54.585Z,100216.81
2023-03-26T12:38:33.623Z,100216.28
2023-03-26T12:41:06.677Z,100219.75
2023-03-26T12:44:55.184Z,100221.41
2023-03-26T12:47:57.875Z,100217.53
2023-03-26T12:49:19.708Z,100227.31
2023-03-26T12:51:52.426Z,100226.09
2023-03-26T12:54:34.687Z,100225.47
2023-03-26T12:57:19.750Z,100230.75
2023-03-26T13:00:06.641Z,100227.09
2023-03-26T13:03:10.473Z,100228.91
2023-03-26T13:05:49.118Z,100231.72
2023-03-26T13:08:32.895Z,100236.19
2023-03-26T13:11:02.827Z,100243.34
2023-03-26T13:14:05.038Z,100242.06
2023-03-26T13:16:44.906Z,100247.75
2023-03-26T13:19:17.359Z,100253.25
2023-03-26T13:21:57.194Z,100248.34
2023-03-26T13:24:39.211Z,100259.97
2023-03-26T13:27:18.679Z,100259.53
2023-03-26T13:29:56.869Z,100249.91
2023-03-26T13:32:37.156Z,100259.53
2023-03-26T13:35:15.812Z,100263.19
2023-03-26T13:37:49.396Z,100255.22
2023-03-26T13:40:25.498Z,100269.50
2023-03-26T13:43:11.203Z,100269.06
2023-03-26T13:45:50.083Z,100263.94
2023-03-26T13:48:21.868Z,100269.25
2023-03-26T13:50:52.413Z,100271.72
2023-03-26T13:53:24.408Z,100270.53
2023-03-26T13:55:55.807Z,100269.50
2023-03-26T13:58:34.619Z,100272.34
2023-03-26T14:01:07.762Z,100271.13
2023-03-26T14:03:47.824Z,100275.25
2023-03-26T14:06:28.590Z,100278.16
2023-03-26T14:09:02.735Z,100285.97
2023-03-26T14:11:43.219Z,100281.31
2023-03-26T14:14:14.201Z,100288.88
2023-03-26T14:16:47.206Z,100294.00
2023-03-26T14:19:39.416Z,100294.38
2023-03-26T14:22:19.130Z,100302.34
2023-03-26T14:25:02.377Z,100295.41
2023-03-26T14:27:42.513Z,100317.00
2023-03-26T14:30:40.976Z,100305.56
2023-03-26T14:33:28.130Z,100319.00
2023-03-26T14:36:07.136Z,100321.06
2023-03-26T14:39:11.628Z,100320.03
2023-03-26T14:41:48.063Z,100319.84
2023-03-26T14:44:47.566Z,100326.78
2023-03-26T14:47:17.882Z,100328.44
2023-03-26T14:50:13.762Z,100335.75
2023-03-26T14:52:48.052Z,100341.28
2023-03-26T14:55:33.903Z,100336.16
2023-03-26T14:58:27.922Z,100351.06
2023-03-26T15:01:25.139Z,100347.59
2023-03-26T15:04:34.590Z,100349.66
2023-03-26T15:07:37.908Z,100358.06
2023-03-26T15:10:14.301Z,100353.00
2023-03-26T15:12:58.620Z,100362.22
2023-03-26T15:16:03.188Z,100363.88
2023-03-26T15:19:13.186Z,100371.47
2023-03-26T15:22:22.464Z,100371.28
2023-03-26T15:25:19.118Z,100374.31
2023-03-26T15:28:26.592Z,100375.50
2023-03-26T15:31:14.152Z,100380.56
2023-03-26T15:34:08.801Z,100392.56
2023-03-26T15:37:05.239Z,100400.25
2023-03-26T15:40:08.172Z,100406.31
2023-03-26T15:42:49.429Z,100417.13
2023-03-26T15:45:30.044Z,100413.56
2023-03-26T15:48:27.006Z,100422.56
2023-03-26T15:51:01.912Z,100428.59
2023-03-26T15:53:38.921Z,100443.41
2023-03-26T15:56:29.840Z,100436.84
2023-03-26T15:59:07.154Z,100453.78
2023-03-26T16:01:51.615Z,100461.09
2023-03-26T16:04:32.507Z,100469.22
2023-03-26T16:07:03.882Z,100470.25
2023-03-26T16:09:50.755Z,100475.72
2023-03-26T16:12:31.192Z,100485.03
2023-03-26T16:15:27.927Z,100489.44
2023-03-26T16:18:26.252Z,100493.47
2023-03-26T16:20:55.090Z,100495.47
2023-03-26T16:23:29.350Z,100499.34
2023-03-26T16:26:12.608Z,100510.09
2023-03-26T16:29:05.305Z,100507.97
2023-03-26T16:31:38.814Z,100520.63
2023-03-26T16:34:28.662Z,100525.44
2023-03-26T16:36:59.196Z,100527.81
2023-03-26T16:39:39.784Z,100536.13
2023-03-26T16:42:35.796Z,100531.81
2023-03-26T16:45:16.314Z,100545.63
2023-03-26T16:47:51.661Z,100546.44
2023-03-26T16:50:29.160Z,100549.91
2023-03-26T16:53:04.427Z,100556.06
2023-03-26T16:55:43.031Z,100559.88
2023-03-26T16:58:16.460Z,100566.38
2023-03-26T17:00:48.692Z,100574.00
2023-03-26T17:03:38.900Z,100587.47
2023-03-26T17:06:29.289Z,100587.16
2023-03-26T17:09:16.077Z,100597.91
2023-03-26T17:11:54.961Z,100601.59
2023-03-26T17:14:48.998Z,100612.53
2023-03-26T17:17:36.639Z,100615.19
2023-03-26T17:20:19.200Z,100619.81
2023-03-26T17:22:51.535Z,100634.06
2023-03-26T17:25:25.118Z,100636.09
2023-03-26T17:28:07.468Z,100644.19
2023-03-26T17:31:00.713Z,100646.19
2023-03-26T17:33:31.660Z,100663.63
2023-03-26T17:36:35.807Z,100658.97
2023-03-26T17:39:19.570Z,100669.75
2023-03-26T17:41:55.617Z,100679.22
2023-03-26T17:44:37.697Z,100682.34
2023-03-26T17:47:11.309Z,100697.25
2023-03-26T17:49:41.451Z,100687.16
2023-03-26T17:52:19.680Z,100703.06
2023-03-26T17:54:50.894Z,100705.69
2023-03-26T17:57:22.939Z,100706.03
2023-03-26T17:59:53.149Z,100725.56
2023-03-26T18:02:24.168Z,100726.25
2023-03-26T18:04:53.729Z,100731.56
2023-03-26T18:07:48.633Z,100738.22
2023-03-26T18:10:33.462Z,100743.03
2023-03-26T18:13:24.217Z,100749.50
2023-03-26T18:16:00.051Z,100758.56
2023-03-26T18:18:32.146Z,100772.47
2023-03-26T18:21:03.647Z,100763.41
2023-03-26T18:23:37.500Z,100778.13
2023-03-26T18:26:14.182Z,100784.06
2023-03-26T18:28:43.322Z,100776.66
2023-03-26T18:31:17.461Z,100795.34
2023-03-26T18:33:45.847Z,100798.34
2023-03-26T18:36:15.293Z,100802.13
2023-03-26T18:38:43.088Z,100806.09
2023-03-26T18:41:18.554Z,100815.03
2023-03-26T18:43:47.037Z,100820.31
2023-03-26T18:46:14.827Z,100817.16
2023-03-26T18:48:42.497Z,100817.31
2023-03-26T18:51:12.307Z,100825.25
2023-03-26T18:53:42.863Z,100837.50
2023-03-26T18:56:28.461Z,100842.94
2023-03-26T18:58:58.112Z,100847.91
2023-03-26T19:01:30.698Z,100854.69
2023-03-26T19:03:59.750Z,100859.47
2023-03-26T19:06:26.814Z,100866.75
2023-03-26T19:08:54.487Z,100870.56
2023-03-26T19:11:22.934Z,100873.53
2023-03-26T19:14:04.116Z,100881.63
2023-03-26T19:16:35.385Z,100889.03
2023-03-26T19:19:05.452Z,100893.31
2023-03-26T19:21:33.317Z,100895.63
2023-03-26T19:24:03.864Z,100905.53
2023-03-26T19:26:32.597Z,100906.69
2023-03-26T19:29:00.929Z,100913.13
2023-03-26T19:31:33.201Z,100915.25
2023-03-26T19:34:01.769Z,100913.09
2023-03-26T19:36:31.558Z,100919.69
2023-03-26T19:39:12.005Z,100922.63
2023-03-26T19:41:43.448Z,100927.25
2023-03-26T19:44:21.121Z,100935.50
2023-03-26T19:46:53.841Z,100934.47
2023-03-26T19:49:31.752Z,100938.25
2023-03-26T19:52:12.631Z,100950.97
2023-03-26T19:55:01.634Z,100960.31
2023-03-26T19:57:32.463Z,100961.63
2023-03-26T20:00:01.452Z,100972.00
2023-03-26T20:02:28.663Z,100979.38
2023-03-26T20:04:56.839Z,100979.19
2023-03-26T20:07:35.813Z,100983.13
2023-03-26T20:10:05.596Z,100990.00
2023-03-26T20:12:34.142Z,101002.84
2023-03-26T20:15:02.022Z,101005.78
2023-03-26T20:17:31.110Z,101014.81
2023-03-26T20:20:00.645Z,101014.03
2023-03-26T20:22:27.928Z,101013.47
2023-03-26T20:24:54.878Z,101013.63
2023-03-26T20:27:22.443Z,101020.88
2023-03-26T20:29:50.841Z,101023.81
2023-03-26T20:32:19.300Z,101031.19
2023-03-26T20:34:49.243Z,101040.94
2023-03-26T20:37:18.476Z,101040.41
2023-03-26T20:39:45.862Z,101044.34
2023-03-26T20:42:15.461Z,101052.53
2023-03-26T20:44:42.930Z,101054.66
2023-03-26T20:47:12.858Z,101059.25
2023-03-26T20:49:40.315Z,101066.63
2023-03-26T20:52:07.108Z,101065.28
2023-03-26T20:54:33.978Z,101068.75
2023-03-26T20:57:00.746Z,101075.00
2023-03-26T20:59:28.232Z,101073.47
2023-03-26T21:01:57.003Z,101081.25
2023-03-26T21:04:26.690Z,101084.84
2023-03-26T21:07:11.006Z,101088.47
2023-03-26T21:09:47.738Z,101088.47
2023-03-26T21:12:23.794Z,101107.63
2023-03-26T21:14:52.841Z,101099.03
2023-03-26T21:17:23.823Z,101108.75
2023-03-26T21:19:53.430Z,101116.66
2023-03-26T21:22:30.018Z,101116.00
2023-03-26T21:25:05.494Z,101116.00
2023-03-26T21:27:43.682Z,101120.13
2023-03-26T21:30:16.325Z,101130.69
2023-03-26T21:32:45.660Z,101132.34
2023-03-26T21:35:16.572Z,101135.97
2023-03-26T21:37:47.003Z,101137.22
2023-03-26T21:40:16.696Z,101138.19
2023-03-26T21:42:45.620Z,101144.56
2023-03-26T21:45:13.568Z,101152.66
2023-03-26T21:47:41.199Z,101154.72
2023-03-26T21:50:11.134Z,101160.97
2023-03-26T21:52:47.068Z,101162.78
2023-03-26T21:55:15.620Z,101158.66
2023-03-26T21:57:55.797Z,101158.78
2023-03-26T22:00:33.589Z,101163.22
2023-03-26T22:03:18.035Z,101168.94
2023-03-26T22:05:52.278Z,101180.59
2023-03-26T22:08:29.869Z,101185.34
2023-03-26T22:10:57.208Z,101191.59
2023-03-26T22:13:24.901Z,101198.69
2023-03-26T22:15:51.880Z,101200.47
2023-03-26T22:18:22.686Z,101204.09
2023-03-26T22:20:49.486Z,101213.66
2023-03-26T22:23:16.836Z,101215.59
2023-03-26T22:25:46.026Z,101218.22
2023-03-26T22:28:14.024Z,101221.00
2023-03-26T22:30:41.569Z,101220.47
2023-03-26T22:33:11.113Z,101227.00
2023-03-26T22:35:38.252Z,101237.84
2023-03-26T22:38:05.799Z,101240.47
2023-03-26T22:40:32.825Z,101241.56
2023-03-26T22:43:01.731Z,101242.72
2023-03-26T22:45:28.582Z,101246.31
2023-03-26T22:48:03.528Z,101248.25
2023-03-26T22:50:33.038Z,101249.34
2023-03-26T22:53:00.263Z,101258.53
2023-03-26T22:55:28.360Z,101263.22
2023-03-26T22:57:55.900Z,101267.00
2023-03-26T23:00:26.548Z,101269.06
2023-03-26T23:02:56.030Z,101279.91
2023-03-26T23:05:23.598Z,101284.34
2023-03-26T23:08:02.696Z,101300.13
2023-03-26T23:10:30.254Z,101301.09
2023-03-26T23:12:57.128Z,101309.16
2023-03-26T23:15:28.199Z,101302.50
2023-03-26T23:17:55.325Z,101304.28
2023-03-26T23:20:22.534Z,101309.81
2023-03-26T23:22:49.370Z,101306.50
2023-03-26T23:25:16.381Z,101304.00
2023-03-26T23:27:43.774Z,101314.56
2023-03-26T23:30:11.987Z,101318.81
2023-03-26T23:32:41.785Z,101333.66
2023-03-26T23:35:09.469Z,101338.94
2023-03-26T23:37:36.697Z,101343.38
2023-03-26T23:40:09.961Z,101353.06
2023-03-26T23:42:39.775Z,101349.78
2023-03-26T23:45:08.839Z,101348.09
2023-03-26T23:47:35.838Z,101359.59
2023-03-26T23:50:05.902Z,101356.97
2023-03-26T23:52:32.778Z,101369.59
2023-03-26T23:55:00.000Z,101362.66
2023-03-26T23:57:27.380Z,101370.41
2023-03-26T23:59:56.683Z,101370.69
